Time;durP1;ratioP1;P1;durP2;ratioP2;P2;SDS_P1;SDS_P2;PMS_P1;PMS_P2;Temp;Humidity;BMP_temperature;BMP_pressure;BME280_temperature;BME280_humidity;BME280_pressure;Samples;Min_cycle;Max_cycle;Signal;HPM_P1;HPM_P2
2022/06/18 00:02:56;;;;;;;7.00;3.80;;;21.00;99.90;;;;;;6144300;29;20059;-68
2022/06/18 00:05:59;;;;;;;3.70;3.15;;;21.00;99.90;;;;;;6131374;29;20051;-68
2022/06/18 00:09:02;;;;;;;6.93;3.70;;;20.90;99.90;;;;;;6137218;28;20048;-68
2022/06/18 00:15:37;;;;;;;6.50;4.22;;;20.80;99.90;;;;;;6129255;29;20076;-68
2022/06/18 00:18:39;;;;;;;8.07;4.55;;;20.80;99.90;;;;;;6129146;29;20493;-68
2022/06/18 00:21:42;;;;;;;7.53;4.03;;;20.80;99.90;;;;;;6129531;29;20051;-68
2022/06/18 00:24:45;;;;;;;6.65;4.20;;;20.80;99.90;;;;;;6140320;29;20060;-68
2022/06/18 00:27:47;;;;;;;4.97;4.03;;;20.70;99.90;;;;;;6127517;29;20432;-68
2022/06/18 00:30:51;;;;;;;6.22;3.72;;;20.70;99.90;;;;;;6135895;29;20055;-68
2022/06/18 00:33:53;;;;;;;5.80;3.50;;;20.70;99.90;;;;;;6152947;28;20051;-68
2022/06/18 00:36:57;;;;;;;4.75;3.90;;;20.70;99.90;;;;;;6152378;28;20133;-68
2022/06/18 00:39:58;;;;;;;5.90;2.92;;;20.70;99.90;;;;;;6151591;29;20460;-67
2022/06/18 00:43:05;;;;;;;6.80;4.47;;;20.70;99.90;;;;;;6136714;29;20051;-67
2022/06/18 00:46:16;;;;;;;5.90;4.00;;;20.70;99.90;;;;;;6128396;29;20059;-68
2022/06/18 00:49:23;;;;;;;8.40;4.07;;;20.70;99.90;;;;;;6127444;29;20071;-68
2022/06/18 00:52:33;;;;;;;8.73;3.30;;;20.70;99.90;;;;;;6136522;29;20044;-68
2022/06/18 00:55:42;;;;;;;7.45;4.18;;;20.70;99.90;;;;;;6152557;28;20484;-67
2022/06/18 00:58:50;;;;;;;6.57;4.53;;;20.60;99.90;;;;;;6143725;28;20043;-68
2022/06/18 01:01:56;;;;;;;7.45;4.28;;;20.60;99.90;;;;;;6139703;29;20062;-68
2022/06/18 01:04:58;;;;;;;7.40;3.78;;;20.60;99.90;;;;;;6150747;29;20057;-68
2022/06/18 01:08:02;;;;;;;6.80;3.55;;;20.50;99.90;;;;;;6151638;28;20074;-68
2022/06/18 01:11:10;;;;;;;5.53;4.10;;;20.60;99.90;;;;;;6150476;29;20062;-68
2022/06/18 01:14:16;;;;;;;5.10;4.18;;;20.60;99.90;;;;;;6152094;28;20047;-68
2022/06/18 01:17:19;;;;;;;6.28;4.72;;;20.60;99.90;;;;;;6132273;29;20061;-68
2022/06/18 01:20:23;;;;;;;6.65;3.63;;;20.60;99.90;;;;;;6127841;29;20051;-68
2022/06/18 01:23:34;;;;;;;6.47;4.20;;;20.60;99.90;;;;;;6135589;29;20066;-68
2022/06/18 01:26:37;;;;;;;9.43;4.28;;;20.60;99.90;;;;;;6151799;28;20058;-68
2022/06/18 01:29:39;;;;;;;6.68;3.75;;;20.60;99.90;;;;;;6142254;29;20059;-68
2022/06/18 01:32:42;;;;;;;6.20;4.30;;;20.60;99.90;;;;;;6127363;29;20493;-68
2022/06/18 01:35:47;;;;;;;5.18;3.88;;;20.60;99.90;;;;;;6126685;29;20063;-67
2022/06/18 01:38:49;;;;;;;6.38;4.70;;;20.50;99.90;;;;;;6127219;29;20648;-68
2022/06/18 01:41:57;;;;;;;7.50;4.78;;;20.50;99.90;;;;;;6126265;29;20074;-68
2022/06/18 01:45:06;;;;;;;5.00;4.50;;;20.40;99.90;;;;;;6127070;29;20047;-68
2022/06/18 01:48:16;;;;;;;9.85;4.93;;;20.40;99.90;;;;;;6126917;29;20055;-68
2022/06/18 01:51:24;;;;;;;8.55;5.07;;;20.30;99.90;;;;;;6127696;29;20520;-68
2022/06/18 01:54:32;;;;;;;9.95;4.90;;;20.20;99.90;;;;;;6136252;29;20070;-68
2022/06/18 01:57:40;;;;;;;6.65;5.38;;;20.20;99.90;;;;;;6150770;28;20048;-68
2022/06/18 02:00:45;;;;;;;9.52;5.60;;;20.10;99.90;;;;;;6151308;28;20047;-68
2022/06/18 02:03:48;;;;;;;8.00;5.35;;;20.00;99.90;;;;;;6167981;28;20050;-68
2022/06/18 02:06:51;;;;;;;7.97;5.90;;;19.90;99.90;;;;;;6160882;28;20051;-68
2022/06/18 02:09:55;;;;;;;;;;;19.90;99.90;;;;;;6127592;29;20056;-67
2022/06/18 02:13:02;;;;;;;8.45;5.68;;;19.80;99.90;;;;;;6126558;29;19923;-68
2022/06/18 02:16:09;;;;;;;8.00;5.68;;;19.70;99.90;;;;;;6125630;29;20051;-68
2022/06/18 02:19:12;;;;;;;8.38;5.90;;;19.70;99.90;;;;;;6126985;29;20055;-69
2022/06/18 02:22:15;;;;;;;7.43;6.60;;;19.70;99.90;;;;;;6126600;29;20523;-68
2022/06/18 02:25:19;;;;;;;10.73;6.30;;;19.60;99.90;;;;;;6147957;29;21053;-69
2022/06/18 02:28:25;;;;;;;6.35;4.80;;;19.60;99.90;;;;;;6150089;29;20051;-68
2022/06/18 02:31:31;;;;;;;9.40;5.50;;;19.60;99.90;;;;;;6150037;28;20425;-68
2022/06/18 02:34:33;;;;;;;6.57;5.90;;;19.70;99.90;;;;;;6150346;28;20066;-68
2022/06/18 02:37:36;;;;;;;5.97;4.22;;;19.70;99.90;;;;;;6148975;29;20523;-68
2022/06/18 02:40:38;;;;;;;8.23;4.35;;;19.70;99.90;;;;;;6147900;29;20130;-68
2022/06/18 02:43:43;;;;;;;6.03;4.35;;;19.70;99.90;;;;;;6149690;28;20066;-68
2022/06/18 02:46:45;;;;;;;8.73;5.90;;;19.70;99.90;;;;;;6148246;28;20047;-68
2022/06/18 02:49:52;;;;;;;4.80;4.30;;;19.70;99.90;;;;;;6147967;28;20137;-68
2022/06/18 02:52:58;;;;;;;10.13;7.32;;;19.70;99.90;;;;;;6149673;28;20408;-68
2022/06/18 02:56:04;;;;;;;9.57;6.50;;;19.80;99.90;;;;;;6150149;28;20044;-68
2022/06/18 02:59:07;;;;;;;15.52;7.90;;;19.80;99.90;;;;;;6132242;29;20099;-68
2022/06/18 03:02:09;;;;;;;12.00;7.78;;;19.70;99.90;;;;;;6125918;29;20051;-68
2022/06/18 03:05:20;;;;;;;6.03;4.72;;;19.70;99.90;;;;;;6124697;29;20063;-68
2022/06/18 03:08:23;;;;;;;8.50;5.45;;;19.60;99.90;;;;;;6133018;29;20054;-68
2022/06/18 03:14:47;;;;;;;8.95;6.70;;;19.60;99.90;;;;;;6142902;28;20493;-69
2022/06/18 03:17:52;;;;;;;9.15;5.93;;;19.60;99.90;;;;;;6125888;29;20044;-68
2022/06/18 03:21:00;;;;;;;11.15;7.97;;;19.60;99.90;;;;;;6130054;29;20096;-69
2022/06/18 03:24:02;;;;;;;6.95;4.50;;;19.60;99.90;;;;;;6142308;29;20055;-68
2022/06/18 03:27:04;;;;;;;9.27;7.28;;;19.60;99.90;;;;;;6149383;28;20054;-68
2022/06/18 03:30:10;;;;;;;6.63;4.85;;;19.60;99.90;;;;;;6148238;29;20102;-69
2022/06/18 03:33:12;;;;;;;11.63;8.63;;;19.60;99.90;;;;;;6148629;28;20047;-69
2022/06/18 03:36:17;;;;;;;7.00;5.73;;;19.70;99.90;;;;;;6148447;29;20113;-69
2022/06/18 03:39:19;;;;;;;9.85;8.73;;;19.70;99.90;;;;;;6148353;29;20113;-69
2022/06/18 03:42:21;;;;;;;11.25;9.10;;;19.70;99.90;;;;;;6148325;29;20063;-69
2022/06/18 03:45:25;;;;;;;8.27;6.15;;;19.70;99.90;;;;;;6149236;28;20066;-69
2022/06/18 03:48:29;;;;;;;13.05;8.18;;;19.60;99.90;;;;;;6147673;29;20427;-68
2022/06/18 03:51:32;;;;;;;10.77;8.55;;;19.60;99.90;;;;;;6148057;29;20527;-68
2022/06/18 03:54:34;;;;;;;11.60;6.75;;;19.70;99.90;;;;;;6148907;28;20043;-68
2022/06/18 03:57:36;;;;;;;7.55;5.47;;;19.70;99.90;;;;;;6149478;28;20047;-68
2022/06/18 04:00:40;;;;;;;8.68;6.78;;;19.80;99.90;;;;;;6150248;28;20122;-68
2022/06/18 04:03:42;;;;;;;11.32;8.82;;;19.80;99.90;;;;;;6153208;28;20419;-68
2022/06/18 04:06:44;;;;;;;13.02;9.32;;;19.90;99.90;;;;;;6139272;28;20059;-69
2022/06/18 04:09:46;;;;;;;9.23;7.10;;;19.90;99.90;;;;;;6129827;29;20044;-68
2022/06/18 04:12:48;;;;;;;8.30;6.30;;;19.90;99.90;;;;;;6128271;29;20141;-68
2022/06/18 04:15:53;;;;;;;11.88;8.77;;;19.80;99.90;;;;;;6129313;29;20047;-68
2022/06/18 04:18:55;;;;;;;16.60;10.68;;;19.90;99.90;;;;;;6129758;29;20051;-68
2022/06/18 04:21:57;;;;;;;15.82;10.45;;;19.90;99.90;;;;;;6136901;29;20047;-68
2022/06/18 04:24:59;;;;;;;9.95;6.45;;;19.80;99.90;;;;;;6129615;28;20052;-68
2022/06/18 04:28:01;;;;;;;11.65;8.02;;;19.80;99.90;;;;;;6128960;29;20057;-68
2022/06/18 04:31:05;;;;;;;10.55;7.05;;;19.80;99.90;;;;;;6129638;29;20496;-68
2022/06/18 04:34:06;;;;;;;15.90;9.00;;;19.80;99.90;;;;;;6128799;29;20067;-68
2022/06/18 04:37:08;;;;;;;17.50;13.40;;;19.80;99.90;;;;;;6128882;29;20084;-68
2022/06/18 04:40:14;;;;;;;23.05;14.50;;;19.80;99.90;;;;;;6129186;29;20433;-69
2022/06/18 04:43:16;;;;;;;19.30;11.93;;;19.80;99.90;;;;;;6127493;29;20059;-68
2022/06/18 04:46:20;;;;;;;25.67;16.87;;;19.60;99.90;;;;;;6127065;29;20497;-68
2022/06/18 04:49:22;;;;;;;26.30;16.40;;;19.50;99.90;;;;;;6127610;29;20103;-68
2022/06/18 04:52:24;;;;;;;15.27;8.57;;;19.40;99.90;;;;;;6127813;29;20489;-68
2022/06/18 04:55:26;;;;;;;19.45;12.25;;;19.30;99.90;;;;;;6133006;29;20405;-69
2022/06/18 04:58:29;;;;;;;13.95;10.40;;;19.30;99.90;;;;;;6131377;29;20089;-68
2022/06/18 05:01:32;;;;;;;23.67;16.67;;;19.30;99.90;;;;;;6128287;29;20409;-68
2022/06/18 05:04:34;;;;;;;;;;;19.40;99.90;;;;;;6128541;29;20524;-68
2022/06/18 05:07:36;;;;;;;23.58;16.30;;;19.50;99.90;;;;;;6128252;29;19927;-68
2022/06/18 05:10:38;;;;;;;15.07;8.60;;;19.50;99.90;;;;;;6128083;29;20055;-68
2022/06/18 05:13:40;;;;;;;17.27;13.73;;;19.60;99.90;;;;;;6132543;29;20058;-68
2022/06/18 05:16:44;;;;;;;24.85;16.38;;;19.90;99.90;;;;;;6150565;29;20082;-68
2022/06/18 05:19:47;;;;;;;18.90;12.80;;;20.10;99.90;;;;;;6151697;28;20134;-68
2022/06/18 05:22:49;;;;;;;16.52;11.10;;;19.90;99.90;;;;;;6151456;28;20439;-68
2022/06/18 05:25:55;;;;;;;21.65;15.35;;;19.80;99.90;;;;;;6151111;28;20063;-67
2022/06/18 05:28:57;;;;;;;31.77;19.70;;;19.70;99.90;;;;;;6150854;29;20389;-68
2022/06/18 05:32:00;;;;;;;29.17;19.83;;;19.50;99.90;;;;;;6136216;28;20186;-68
2022/06/18 05:35:03;;;;;;;32.45;19.17;;;19.40;99.90;;;;;;6126462;29;20086;-68
2022/06/18 05:38:05;;;;;;;23.87;19.03;;;19.30;99.90;;;;;;6126211;29;20048;-68
2022/06/18 05:41:08;;;;;;;25.85;19.17;;;19.30;99.90;;;;;;6126410;29;20178;-68
2022/06/18 05:44:10;;;;;;;35.15;20.50;;;19.30;99.90;;;;;;6126375;29;20062;-68
2022/06/18 05:47:16;;;;;;;30.25;21.08;;;19.30;99.90;;;;;;6126173;29;20462;-68
2022/06/18 05:50:20;;;;;;;34.00;21.42;;;19.20;99.90;;;;;;6126017;29;20048;-68
2022/06/18 05:53:22;;;;;;;33.33;21.20;;;19.10;99.90;;;;;;6125759;29;20052;-68
2022/06/18 05:56:24;;;;;;;25.95;19.63;;;19.20;99.90;;;;;;6140715;29;20479;-68
2022/06/18 05:59:26;;;;;;;36.17;23.27;;;19.30;99.90;;;;;;6150660;28;20342;-68
2022/06/18 06:02:29;;;;;;;31.27;20.63;;;19.20;99.90;;;;;;6149571;29;20039;-68
2022/06/18 06:05:32;;;;;;;32.70;21.77;;;19.20;99.90;;;;;;6138597;28;20058;-68
2022/06/18 06:08:34;;;;;;;30.65;22.52;;;19.30;99.90;;;;;;6126781;29;20071;-68
2022/06/18 06:11:37;;;;;;;33.20;21.77;;;19.40;99.90;;;;;;6138878;29;20062;-68
2022/06/18 06:14:41;;;;;;;30.42;22.38;;;19.40;99.90;;;;;;6141353;29;20519;-68
2022/06/18 06:17:44;;;;;;;;;;;19.40;99.90;;;;;;6127354;29;20051;-68
2022/06/18 06:20:49;;;;;;;25.80;16.75;;;19.40;99.90;;;;;;6126340;29;20376;-68
2022/06/18 06:23:51;;;;;;;32.03;21.48;;;19.40;99.90;;;;;;6126093;29;20043;-68
2022/06/18 06:26:53;;;;;;;28.40;18.67;;;19.50;99.90;;;;;;6132076;29;20058;-68
2022/06/18 06:29:55;;;;;;;33.15;22.23;;;19.50;99.90;;;;;;6150273;28;20501;-68
2022/06/18 06:33:01;;;;;;;28.10;20.17;;;19.60;99.90;;;;;;6149920;29;20050;-68
2022/06/18 06:36:05;;;;;;;30.02;21.63;;;19.60;99.90;;;;;;6148865;29;20051;-68
2022/06/18 06:39:06;;;;;;;37.10;22.48;;;19.60;99.90;;;;;;6140775;28;20059;-68
2022/06/18 06:42:10;;;;;;;33.78;22.15;;;19.80;99.90;;;;;;6126448;29;20048;-68
2022/06/18 06:45:14;;;;;;;;;;;19.90;99.90;;;;;;6126446;29;20522;-67
2022/06/18 06:48:17;;;;;;;34.03;23.02;;;20.00;99.90;;;;;;6124573;29;20009;-69
2022/06/18 06:51:21;;;;;;;20.65;13.70;;;20.00;99.90;;;;;;6126561;29;20050;-68
2022/06/18 06:54:23;;;;;;;31.23;20.65;;;20.00;99.90;;;;;;6124901;29;20056;-66
2022/06/18 06:57:24;;;;;;;22.85;14.90;;;20.10;99.90;;;;;;6126459;29;20055;-66
2022/06/18 07:00:26;;;;;;;25.40;17.90;;;20.30;99.90;;;;;;6124703;29;20063;-66
2022/06/18 07:03:33;;;;;;;24.63;16.55;;;20.40;99.90;;;;;;6125879;29;20053;-67
2022/06/18 07:06:35;;;;;;;32.33;17.92;;;20.60;99.90;;;;;;6124531;29;20067;-67
2022/06/18 07:09:37;;;;;;;29.53;17.03;;;20.80;99.90;;;;;;6125986;29;20083;-68
2022/06/18 07:12:40;;;;;;;24.23;14.57;;;21.30;99.90;;;;;;6135639;29;20055;-69
2022/06/18 07:15:42;;;;;;;18.08;10.00;;;21.80;99.90;;;;;;6125588;29;20048;-68
2022/06/18 07:18:45;;;;;;;24.20;15.50;;;22.30;99.90;;;;;;6125812;29;20047;-67
2022/06/18 07:21:51;;;;;;;23.02;13.85;;;22.70;99.90;;;;;;6139173;29;20412;-68
2022/06/18 07:24:53;;;;;;;22.58;12.23;;;23.00;99.90;;;;;;6149000;28;20416;-68
2022/06/18 07:27:56;;;;;;;25.98;11.07;;;23.40;99.90;;;;;;6149225;28;20492;-67
2022/06/18 07:30:58;;;;;;;18.77;10.90;;;23.50;99.90;;;;;;6134040;28;20069;-68
2022/06/18 07:34:02;;;;;;;20.05;11.52;;;23.60;99.90;;;;;;6124678;29;20067;-68
2022/06/18 07:37:04;;;;;;;16.45;9.38;;;23.60;99.90;;;;;;6129770;29;20493;-67
2022/06/18 07:40:07;;;;;;;16.27;10.60;;;23.70;99.90;;;;;;6130202;29;20059;-67
2022/06/18 07:43:10;;;;;;;18.53;10.93;;;23.70;99.90;;;;;;6130472;29;20043;-67
2022/06/18 07:46:12;;;;;;;11.20;6.63;;;23.80;99.90;;;;;;6130074;29;20054;-67
2022/06/18 07:49:15;;;;;;;21.42;9.40;;;23.80;99.90;;;;;;6128769;29;20048;-67
2022/06/18 07:52:17;;;;;;;;;;;23.90;99.90;;;;;;6130795;29;20128;-67
2022/06/18 07:55:22;;;;;;;10.77;6.30;;;24.00;99.90;;;;;;6130186;29;19923;-67
2022/06/18 07:58:26;;;;;;;19.23;11.77;;;24.00;99.90;;;;;;6145251;29;20051;-67
2022/06/18 08:01:28;;;;;;;21.63;12.63;;;24.20;99.90;;;;;;6153674;28;20047;-68
2022/06/18 08:04:31;;;;;;;20.05;10.18;;;24.30;99.90;;;;;;6140001;29;20482;-67
2022/06/18 08:07:33;;;;;;;11.48;5.85;;;24.50;99.90;;;;;;6129823;29;20056;-67
2022/06/18 08:10:38;;;;;;;14.02;7.30;;;24.60;99.90;;;;;;6131879;29;20043;-67
2022/06/18 08:13:40;;;;;;;18.48;6.90;;;24.70;99.90;;;;;;6140218;29;20062;-68
2022/06/18 08:16:44;;;;;;;11.07;5.53;;;24.70;99.90;;;;;;6128899;29;20417;-68
2022/06/18 08:19:47;;;;;;;8.27;4.65;;;24.80;99.90;;;;;;6129242;29;20122;-69
2022/06/18 08:22:50;;;;;;;5.90;3.15;;;25.00;99.90;;;;;;6150532;29;20206;-68
2022/06/18 08:25:52;;;;;;;7.15;3.50;;;24.90;99.90;;;;;;6151656;29;20424;-68
2022/06/18 08:28:55;;;;;;;11.38;4.18;;;24.80;99.90;;;;;;6152755;28;20436;-68
2022/06/18 08:31:57;;;;;;;7.88;4.07;;;24.60;99.90;;;;;;6151803;29;20047;-68
2022/06/18 08:35:01;;;;;;;4.75;3.42;;;24.60;99.90;;;;;;6151861;29;20055;-68
2022/06/18 08:38:05;;;;;;;7.35;3.55;;;24.70;99.90;;;;;;6144406;28;20048;-68
2022/06/18 08:41:18;;;;;;;5.60;3.75;;;24.70;99.90;;;;;;6129283;29;20126;-66
2022/06/18 08:44:35;;;;;;;;;;;24.60;99.90;;;;;;6129621;29;20044;-68
2022/06/18 08:48:00;;;;;;;6.68;3.40;;;24.60;99.90;;;;;;6127802;29;19922;-68
2022/06/18 08:51:16;;;;;;;8.40;3.55;;;24.70;99.90;;;;;;6126950;29;20059;-68
2022/06/18 08:54:28;;;;;;;8.27;3.60;;;24.60;99.90;;;;;;6128407;29;20051;-68
2022/06/18 08:57:40;;;;;;;11.23;3.53;;;24.50;99.90;;;;;;6138438;29;20496;-68
2022/06/18 09:00:58;;;;;;;5.35;2.80;;;24.30;99.90;;;;;;6151060;29;20426;-68
2022/06/18 09:04:16;;;;;;;6.60;3.03;;;24.20;99.90;;;;;;6150900;29;20058;-68
2022/06/18 09:07:49;;;;;;;6.80;2.70;;;24.20;99.90;;;;;;6150758;29;20066;-68
2022/06/18 09:11:27;;;;;;;6.20;3.03;;;24.10;99.90;;;;;;6149529;28;20051;-68
2022/06/18 09:14:35;;;;;;;8.27;3.17;;;24.10;99.90;;;;;;6145163;29;20055;-68
2022/06/18 09:17:41;;;;;;;9.70;3.15;;;24.20;99.90;;;;;;6150095;29;20062;-68
2022/06/18 09:20:49;;;;;;;5.38;2.80;;;24.20;99.90;;;;;;6151794;28;20420;-68
2022/06/18 09:23:57;;;;;;;7.00;3.65;;;24.20;99.90;;;;;;6150425;29;20051;-68
2022/06/18 09:27:04;;;;;;;12.10;3.95;;;24.20;99.90;;;;;;6151438;28;20523;-68
2022/06/18 09:30:12;;;;;;;10.57;4.68;;;24.30;99.90;;;;;;6150752;28;20047;-68
2022/06/18 09:33:18;;;;;;;10.07;4.30;;;24.20;99.90;;;;;;6151426;28;20058;-68
2022/06/18 09:36:24;;;;;;;8.90;5.20;;;24.20;99.90;;;;;;6149869;29;20107;-68
2022/06/18 09:39:32;;;;;;;7.18;3.65;;;24.30;99.90;;;;;;6150225;29;20393;-68
2022/06/18 09:42:39;;;;;;;10.05;3.22;;;24.30;99.90;;;;;;6151347;28;20047;-68
2022/06/18 09:45:46;;;;;;;7.30;4.38;;;24.20;99.90;;;;;;6148748;28;20070;-68
2022/06/18 09:48:48;;;;;;;8.55;4.93;;;24.10;99.90;;;;;;6151002;28;20047;-69
2022/06/18 09:51:54;;;;;;;8.50;4.38;;;23.90;99.90;;;;;;6151043;28;20481;-69
2022/06/18 09:55:04;;;;;;;7.63;4.75;;;23.70;99.90;;;;;;6149905;29;20537;-68
2022/06/18 09:58:12;;;;;;;9.05;4.63;;;23.60;99.90;;;;;;6151108;28;20058;-68
2022/06/18 10:01:18;;;;;;;5.40;3.25;;;23.60;99.90;;;;;;6150506;28;20058;-68
2022/06/18 10:07:51;;;;;;;6.03;2.20;;;23.80;99.90;;;;;;6125222;29;20051;-68
2022/06/18 10:11:07;;;;;;;6.38;2.40;;;24.00;99.90;;;;;;6129255;29;20052;-68
2022/06/18 10:14:13;;;;;;;4.28;2.42;;;24.20;99.90;;;;;;6140063;29;20126;-68
2022/06/18 10:17:27;;;;;;;7.13;2.83;;;24.30;99.90;;;;;;6150317;28;20524;-69
2022/06/18 10:20:42;;;;;;;4.75;2.10;;;24.50;99.90;;;;;;6149296;28;20070;-68
2022/06/18 10:23:54;;;;;;;5.88;1.85;;;24.50;99.90;;;;;;6149930;28;20456;-69
2022/06/18 10:27:03;;;;;;;5.78;2.78;;;24.50;99.90;;;;;;6149012;29;20059;-67
2022/06/18 10:30:09;;;;;;;3.72;2.03;;;24.40;99.90;;;;;;6149917;28;20522;-67
2022/06/18 10:33:21;;;;;;;5.63;2.22;;;24.40;99.90;;;;;;6149029;29;20424;-67
2022/06/18 10:36:34;;;;;;;5.38;2.00;;;24.50;99.90;;;;;;6145760;29;20082;-68
2022/06/18 10:39:49;;;;;;;2.90;2.00;;;24.70;99.90;;;;;;6126714;29;20044;-68
2022/06/18 10:43:09;;;;;;;5.63;2.30;;;24.80;99.90;;;;;;6126805;29;20060;-68
2022/06/18 10:46:15;;;;;;;3.38;1.75;;;24.80;99.90;;;;;;6126090;29;20062;-67
2022/06/18 10:49:25;;;;;;;6.72;2.35;;;24.70;99.90;;;;;;6125070;29;20052;-68
2022/06/18 10:52:27;;;;;;;4.30;2.35;;;24.70;99.90;;;;;;6126366;29;20056;-68
2022/06/18 10:55:30;;;;;;;4.97;2.25;;;24.30;99.90;;;;;;6126355;29;20063;-67
2022/06/18 10:58:33;;;;;;;3.92;2.30;;;24.10;99.90;;;;;;6131882;29;20039;-67
2022/06/18 11:01:39;;;;;;;5.13;2.47;;;24.20;99.90;;;;;;6149096;29;20420;-68
2022/06/18 11:04:42;;;;;;;3.53;2.20;;;24.10;99.90;;;;;;6148172;29;20137;-67
2022/06/18 11:07:49;;;;;;;4.80;2.40;;;24.00;99.90;;;;;;6148248;29;20560;-67
2022/06/18 11:10:54;;;;;;;4.10;2.17;;;23.90;99.90;;;;;;6151449;28;20448;-67
2022/06/18 11:14:08;;;;;;;4.53;1.95;;;23.70;99.90;;;;;;6154617;28;20050;-67
2022/06/18 11:17:20;;;;;;;4.18;2.05;;;23.70;99.90;;;;;;6153998;28;20428;-67
2022/06/18 11:20:24;;;;;;;3.25;1.80;;;23.80;99.90;;;;;;6154609;28;20059;-67
2022/06/18 11:23:28;;;;;;;5.65;2.25;;;24.00;99.90;;;;;;6154734;28;20086;-67
2022/06/18 11:26:30;;;;;;;5.20;2.67;;;24.10;99.90;;;;;;6152904;29;20062;-68
2022/06/18 11:29:37;;;;;;;5.22;2.50;;;24.10;99.90;;;;;;6152362;29;20062;-67
2022/06/18 11:32:46;;;;;;;3.97;2.65;;;24.10;99.90;;;;;;6153126;29;20051;-67
2022/06/18 11:35:50;;;;;;;4.50;1.80;;;24.00;99.90;;;;;;6154091;28;20070;-67
2022/06/18 11:38:55;;;;;;;3.55;2.22;;;23.90;99.90;;;;;;6153790;28;20063;-67
2022/06/18 11:42:03;;;;;;;4.22;3.00;;;24.00;99.90;;;;;;6154147;28;20054;-68
2022/06/18 11:45:27;;;;;;;3.95;1.95;;;24.40;99.90;;;;;;6144722;28;20102;-67
2022/06/18 11:48:38;;;;;;;5.05;2.20;;;24.40;99.90;;;;;;6128989;29;20397;-67
2022/06/18 11:51:45;;;;;;;3.05;1.50;;;24.50;99.90;;;;;;6129728;29;20062;-67
2022/06/18 11:55:00;;;;;;;4.18;1.55;;;24.60;99.90;;;;;;6130127;29;20049;-67
2022/06/18 11:58:10;;;;;;;3.17;1.27;;;24.80;99.90;;;;;;6130081;29;20059;-68
2022/06/18 12:01:20;;;;;;;2.28;1.30;;;24.70;99.90;;;;;;6143435;28;20144;-68
2022/06/18 12:04:27;;;;;;;2.97;1.60;;;24.60;99.90;;;;;;6152529;29;20047;-68
2022/06/18 12:07:36;;;;;;;4.00;1.60;;;24.60;99.90;;;;;;6145207;28;20087;-68
2022/06/18 12:10:46;;;;;;;3.30;1.20;;;24.50;99.90;;;;;;6141447;29;20488;-68
2022/06/18 12:13:52;;;;;;;2.95;1.50;;;24.40;99.90;;;;;;6152400;28;20216;-68
2022/06/18 12:17:00;;;;;;;4.00;1.70;;;24.40;99.90;;;;;;6152609;28;20140;-68
2022/06/18 12:20:26;;;;;;;4.78;2.15;;;24.30;99.90;;;;;;6152223;28;20074;-68
2022/06/18 12:23:39;;;;;;;5.00;1.80;;;24.30;99.90;;;;;;6151888;28;20055;-68
2022/06/18 12:26:44;;;;;;;;;;;24.30;99.90;;;;;;6153404;28;20054;-68
2022/06/18 12:30:05;;;;;;;4.80;2.42;;;24.20;99.90;;;;;;6151711;29;20407;-68
2022/06/18 12:33:16;;;;;;;3.55;2.25;;;24.10;99.90;;;;;;6151265;29;20051;-68
2022/06/18 12:36:24;;;;;;;4.75;2.10;;;24.00;99.90;;;;;;6142160;29;20055;-68
2022/06/18 12:39:34;;;;;;;3.72;2.00;;;24.10;99.90;;;;;;6128413;29;20230;-68
2022/06/18 12:42:41;;;;;;;5.97;2.28;;;24.20;99.90;;;;;;6129180;29;20043;-68
2022/06/18 12:45:52;;;;;;;3.70;1.40;;;24.10;99.90;;;;;;6127258;29;20048;-68
2022/06/18 12:49:05;;;;;;;7.07;1.98;;;24.00;99.90;;;;;;6128908;29;20055;-68
2022/06/18 12:52:19;;;;;;;4.20;1.63;;;24.00;99.90;;;;;;6128156;29;20417;-68
2022/06/18 12:55:28;;;;;;;;;;;24.00;99.90;;;;;;6129250;29;20051;-68
2022/06/18 12:58:39;;;;;;;4.82;1.40;;;23.90;99.90;;;;;;6127331;29;19930;-67
2022/06/18 13:01:52;;;;;;;3.25;1.20;;;23.90;99.90;;;;;;6137387;29;20058;-68
2022/06/18 13:05:11;;;;;;;4.18;1.40;;;23.80;99.90;;;;;;6127186;29;20517;-68
2022/06/18 13:08:27;;;;;;;4.70;1.55;;;23.80;99.90;;;;;;6135711;29;20062;-67
2022/06/18 13:11:42;;;;;;;3.60;1.00;;;23.80;99.90;;;;;;6131673;28;20075;-68
2022/06/18 13:14:56;;;;;;;3.88;1.10;;;23.90;99.90;;;;;;6142984;29;20059;-67
2022/06/18 13:18:03;;;;;;;4.47;1.20;;;24.00;99.90;;;;;;6128356;29;20043;-68
2022/06/18 13:21:09;;;;;;;3.35;1.42;;;23.90;99.90;;;;;;6126512;29;20055;-68
2022/06/18 13:31:06;;;;;;;3.95;1.40;;;23.60;99.90;;;;;;6150584;29;20131;-68
2022/06/18 13:34:16;;;;;;;4.68;1.40;;;23.40;99.90;;;;;;6150032;28;20424;-67
2022/06/18 13:37:25;;;;;;;6.05;1.67;;;23.20;99.90;;;;;;6151583;28;20047;-68
2022/06/18 13:40:35;;;;;;;5.55;1.48;;;22.90;99.90;;;;;;6151220;28;20471;-67
2022/06/18 13:43:46;;;;;;;6.47;1.13;;;22.70;99.90;;;;;;6149637;29;20511;-67
2022/06/18 13:46:55;;;;;;;6.68;1.70;;;22.40;99.90;;;;;;6149638;28;20467;-68
2022/06/18 13:50:06;;;;;;;6.22;1.67;;;22.10;99.90;;;;;;6150926;28;20047;-67
2022/06/18 13:53:10;;;;;;;9.93;1.67;;;21.90;99.90;;;;;;6150296;29;20057;-67
2022/06/18 13:56:20;;;;;;;8.07;1.75;;;21.80;99.90;;;;;;6150762;28;20130;-68
2022/06/18 13:59:23;;;;;;;6.65;1.40;;;21.80;99.90;;;;;;6149587;29;20062;-68
2022/06/18 14:02:31;;;;;;;7.07;1.50;;;21.80;99.90;;;;;;6145606;28;20419;-68
2022/06/18 14:05:43;;;;;;;8.80;1.58;;;21.90;99.90;;;;;;6149585;29;20047;-68
2022/06/18 14:08:51;;;;;;;9.25;1.33;;;21.80;99.90;;;;;;6141731;28;20058;-68
2022/06/18 14:11:59;;;;;;;6.80;1.50;;;21.50;99.90;;;;;;6127251;28;20066;-68
2022/06/18 14:15:19;;;;;;;7.47;1.52;;;21.40;99.90;;;;;;6127126;29;20070;-68
2022/06/18 14:18:22;;;;;;;5.30;1.30;;;21.30;99.90;;;;;;6128982;29;20512;-70
2022/06/18 14:21:27;;;;;;;7.30;1.45;;;21.10;99.90;;;;;;6125222;29;20063;-69
2022/06/18 14:24:40;;;;;;;7.15;1.10;;;21.00;99.90;;;;;;6126572;29;20501;-68
2022/06/18 14:27:48;;;;;;;5.78;1.20;;;20.90;99.90;;;;;;6126565;29;20056;-68
2022/06/18 14:30:58;;;;;;;5.80;0.95;;;20.90;99.90;;;;;;6125552;29;20052;-69
2022/06/18 14:34:10;;;;;;;5.07;1.17;;;20.90;99.90;;;;;;6148295;29;20051;-68
2022/06/18 14:37:14;;;;;;;6.05;0.70;;;21.00;99.90;;;;;;6125552;29;20056;-68
2022/06/18 14:40:22;;;;;;;4.72;1.23;;;21.10;99.90;;;;;;6126331;29;20417;-68
2022/06/18 14:43:43;;;;;;;4.47;1.10;;;21.10;99.90;;;;;;6126192;29;20055;-68
2022/06/18 14:47:06;;;;;;;5.88;1.45;;;21.00;99.90;;;;;;6124397;29;20489;-68
2022/06/18 14:50:51;;;;;;;3.70;1.07;;;20.90;99.90;;;;;;6126365;29;20050;-68
2022/06/18 14:54:09;;;;;;;8.13;1.35;;;20.80;99.90;;;;;;6149333;29;20471;-69
2022/06/18 14:57:37;;;;;;;6.80;1.77;;;20.90;99.90;;;;;;6148666;29;20416;-68
2022/06/18 15:00:52;;;;;;;5.60;1.33;;;21.00;99.90;;;;;;6149333;28;20051;-69
2022/06/18 15:04:05;;;;;;;6.85;1.30;;;21.10;99.90;;;;;;6126573;29;20052;-69
2022/06/18 15:07:07;;;;;;;6.18;1.40;;;21.30;99.90;;;;;;6127206;29;20512;-69
2022/06/18 15:10:15;;;;;;;7.33;2.87;;;21.50;99.90;;;;;;6135136;29;20051;-69
2022/06/18 15:13:18;;;;;;;7.38;1.90;;;21.70;99.90;;;;;;6125976;29;20059;-68
2022/06/18 15:16:32;;;;;;;;;;;21.70;99.90;;;;;;6144622;29;20047;-68
2022/06/18 15:19:41;;;;;;;8.83;1.60;;;21.70;99.90;;;;;;6148324;29;19922;-69
2022/06/18 15:22:58;;;;;;;6.10;1.30;;;21.70;99.90;;;;;;6148191;29;20052;-68
2022/06/18 15:26:06;;;;;;;5.78;1.20;;;21.80;99.90;;;;;;6141065;28;20493;-68
2022/06/18 15:29:17;;;;;;;11.45;3.17;;;21.80;99.90;;;;;;6124573;29;20059;-68
2022/06/18 15:32:24;;;;;;;5.28;1.23;;;21.80;99.90;;;;;;6132022;29;20510;-68
2022/06/18 15:35:28;;;;;;;9.10;2.90;;;21.80;99.90;;;;;;6149583;28;20146;-68
2022/06/18 15:38:33;;;;;;;3.95;1.05;;;21.90;99.90;;;;;;6149715;28;20186;-68
2022/06/18 15:41:38;;;;;;;6.05;1.17;;;21.80;99.90;;;;;;6149402;29;20059;-68
2022/06/18 15:44:45;;;;;;;5.25;0.95;;;21.50;99.90;;;;;;6127739;28;20046;-68
2022/06/18 15:47:49;;;;;;;6.35;1.45;;;21.30;99.90;;;;;;6125559;29;20059;-68
2022/06/18 15:50:55;;;;;;;7.57;1.38;;;21.20;99.90;;;;;;6125649;29;20075;-68
2022/06/18 15:53:59;;;;;;;7.28;1.50;;;21.10;99.90;;;;;;6125325;29;20048;-68
2022/06/18 15:57:10;;;;;;;5.90;1.35;;;21.00;99.90;;;;;;6126889;29;20468;-68
2022/06/18 16:00:20;;;;;;;8.10;1.23;;;20.90;99.90;;;;;;6130155;29;20054;-68
2022/06/18 16:03:25;;;;;;;6.22;1.60;;;21.00;99.90;;;;;;6128290;29;20061;-68
2022/06/18 16:06:28;;;;;;;7.05;1.50;;;21.10;99.90;;;;;;6130890;29;20071;-67
2022/06/18 16:09:42;;;;;;;7.50;1.98;;;21.20;99.90;;;;;;6139370;29;20060;-68
2022/06/18 16:12:44;;;;;;;7.38;1.33;;;21.30;99.90;;;;;;6151973;29;20055;-68
2022/06/18 16:15:49;;;;;;;6.95;1.63;;;21.40;99.90;;;;;;6153250;28;20061;-68
2022/06/18 16:18:57;;;;;;;7.88;1.40;;;21.40;99.90;;;;;;6152724;28;20054;-69
2022/06/18 16:22:01;;;;;;;6.90;1.60;;;21.40;99.90;;;;;;6153104;28;20051;-69
2022/06/18 16:25:15;;;;;;;9.07;1.98;;;21.30;99.90;;;;;;6151618;29;20062;-69